Time;durP1;ratioP1;P1;durP2;ratioP2;P2;SDS_P1;SDS_P2;PMS_P1;PMS_P2;Temp;Humidity;BMP_temperature;BMP_pressure;BME280_temperature;BME280_humidity;BME280_pressure;Samples;Min_cycle;Max_cycle;Signal;HPM_P1;HPM_P2
2022/07/22 00:00:30;;;;;;;7.05;1.73;;;;;;;15.88;100.00;101981.06;5076384;28;20058;-88
2022/07/22 00:02:57;;;;;;;5.00;1.55;;;;;;;15.90;100.00;101976.56;5087970;28;20430;-87
2022/07/22 00:05:24;;;;;;;5.35;1.80;;;;;;;15.79;100.00;101980.56;5084820;28;20056;-87
2022/07/22 00:07:51;;;;;;;7.22;1.70;;;;;;;15.70;100.00;101993.16;5081394;28;20110;-87
2022/07/22 00:10:18;;;;;;;6.90;1.88;;;;;;;15.59;100.00;101984.81;5086750;28;20048;-88
2022/07/22 00:12:44;;;;;;;5.28;1.50;;;;;;;15.53;100.00;101956.03;5082009;28;20052;-87
2022/07/22 00:15:11;;;;;;;5.03;1.40;;;;;;;15.83;100.00;101969.81;5091038;28;20129;-87
2022/07/22 00:17:38;;;;;;;7.30;1.50;;;;;;;15.91;100.00;101975.63;5105771;28;20104;-87
2022/07/22 00:20:06;;;;;;;7.85;1.90;;;;;;;15.97;100.00;101965.75;5074621;28;20048;-88
2022/07/22 00:22:33;;;;;;;5.45;1.48;;;;;;;15.92;100.00;101965.94;5072909;28;20481;-87
2022/07/22 00:25:00;;;;;;;4.57;1.52;;;;;;;16.01;100.00;101960.28;5099712;28;20531;-87
2022/07/22 00:27:27;;;;;;;5.75;1.48;;;;;;;16.02;100.00;101964.63;5079798;28;20048;-87
2022/07/22 00:29:54;;;;;;;5.03;1.60;;;;;;;16.16;100.00;101957.94;5087940;28;20052;-87
2022/07/22 00:32:20;;;;;;;6.07;1.38;;;;;;;16.07;100.00;101959.16;5084149;28;20047;-87
2022/07/22 00:34:49;;;;;;;6.55;1.48;;;;;;;15.96;100.00;101959.63;5099676;28;20523;-87
2022/07/22 00:37:16;;;;;;;5.30;1.60;;;;;;;15.54;100.00;101960.38;5105876;28;20050;-86
2022/07/22 00:39:42;;;;;;;3.60;1.20;;;;;;;15.41;100.00;101965.25;5085074;28;20044;-87
2022/07/22 00:42:09;;;;;;;5.07;1.20;;;;;;;15.36;100.00;101964.56;5088621;28;20441;-87
2022/07/22 00:44:36;;;;;;;6.65;1.15;;;;;;;15.28;100.00;101970.16;5088143;28;20131;-87
2022/07/22 00:47:05;;;;;;;3.38;0.90;;;;;;;15.73;100.00;101958.72;5078307;28;20477;-87
2022/07/22 00:49:32;;;;;;;4.10;1.10;;;;;;;15.85;100.00;101967.97;5066156;28;20068;-88
2022/07/22 00:51:59;;;;;;;4.32;1.35;;;;;;;16.19;100.00;101963.09;5075132;28;20056;-87
2022/07/22 00:54:26;;;;;;;2.45;1.13;;;;;;;16.17;100.00;101970.22;5063036;28;20536;-88
2022/07/22 00:56:52;;;;;;;2.28;0.90;;;;;;;16.25;100.00;101952.25;5069967;28;20059;-87
2022/07/22 00:59:19;;;;;;;4.50;1.15;;;;;;;16.17;100.00;101934.09;5061188;28;20048;-87
2022/07/22 01:01:46;;;;;;;4.57;1.30;;;;;;;15.94;100.00;101941.19;5076659;28;20052;-87
2022/07/22 01:04:13;;;;;;;4.53;1.20;;;;;;;15.77;100.00;101962.13;5069812;28;20048;-87
2022/07/22 01:06:44;;;;;;;3.35;1.10;;;;;;;15.99;100.00;101938.38;5084757;28;20405;-87
2022/07/22 01:09:13;;;;;;;2.35;1.00;;;;;;;16.11;100.00;101944.91;5091841;28;20390;-87
2022/07/22 01:11:40;;;;;;;4.95;1.20;;;;;;;16.23;100.00;101960.25;5076497;28;20062;-88
2022/07/22 01:14:08;;;;;;;2.13;0.90;;;;;;;16.17;100.00;101955.22;5086617;28;20481;-88
2022/07/22 01:16:36;;;;;;;3.65;1.10;;;;;;;15.95;100.00;101957.88;5096195;28;20074;-88
2022/07/22 01:19:04;;;;;;;3.03;1.20;;;;;;;15.94;100.00;101951.75;5089352;28;20044;-89
2022/07/22 01:21:31;;;;;;;3.83;1.10;;;;;;;16.06;100.00;101949.50;5071415;28;20056;-88
2022/07/22 01:23:59;;;;;;;3.28;1.00;;;;;;;15.97;100.00;101940.22;5085489;28;20056;-88
2022/07/22 01:26:26;;;;;;;2.67;1.10;;;;;;;15.91;100.00;101938.66;5056658;28;20054;-88
2022/07/22 01:28:53;;;;;;;4.43;1.33;;;;;;;15.65;100.00;101947.63;5070756;28;20136;-88
2022/07/22 01:31:20;;;;;;;4.43;1.00;;;;;;;15.67;100.00;101947.53;5094102;28;20468;-88
2022/07/22 01:33:47;;;;;;;2.58;1.00;;;;;;;15.99;100.00;101940.13;5070983;28;20048;-88
2022/07/22 01:36:14;;;;;;;3.42;0.90;;;;;;;15.97;100.00;101931.41;5094339;28;20519;-88
2022/07/22 01:38:41;;;;;;;3.30;1.13;;;;;;;15.62;100.00;101936.31;5076208;28;20501;-87
2022/07/22 01:41:08;;;;;;;4.53;1.33;;;;;;;15.70;100.00;101936.84;5062142;28;20394;-86
2022/07/22 01:43:35;;;;;;;4.05;1.30;;;;;;;15.86;100.00;101930.06;5074767;28;20044;-86
2022/07/22 01:46:02;;;;;;;6.40;1.73;;;;;;;15.87;100.00;101936.22;5061929;28;20052;-86
2022/07/22 01:48:29;;;;;;;3.88;1.30;;;;;;;15.60;100.00;101927.56;5076293;28;20040;-87
2022/07/22 01:50:57;;;;;;;4.57;1.23;;;;;;;15.70;100.00;101944.78;5084484;28;20066;-87
2022/07/22 01:53:24;;;;;;;8.50;1.60;;;;;;;15.46;100.00;101931.63;5074212;28;20051;-87
2022/07/22 01:55:51;;;;;;;4.55;1.30;;;;;;;15.44;100.00;101932.59;5078713;28;20131;-87
2022/07/22 01:58:18;;;;;;;3.60;1.10;;;;;;;15.60;100.00;101930.22;5056122;28;20044;-88
2022/07/22 02:00:45;;;;;;;4.00;1.13;;;;;;;15.47;100.00;101927.22;5067683;28;20504;-88
2022/07/22 02:03:12;;;;;;;5.03;1.40;;;;;;;15.83;100.00;101935.50;5074997;28;20076;-88
2022/07/22 02:05:39;;;;;;;5.90;1.20;;;;;;;15.65;100.00;101922.97;5072369;28;20044;-88
2022/07/22 02:08:09;;;;;;;3.88;1.20;;;;;;;15.83;100.00;101927.56;5075525;28;20059;-88
2022/07/22 02:10:36;;;;;;;2.15;0.90;;;;;;;16.04;100.00;101922.31;5075832;28;20048;-88
2022/07/22 02:13:03;;;;;;;3.50;0.98;;;;;;;15.93;100.00;101915.69;5081418;28;20051;-88
2022/07/22 02:15:30;;;;;;;3.17;1.00;;;;;;;15.84;100.00;101929.28;5075513;28;20051;-87
2022/07/22 02:17:57;;;;;;;5.53;1.40;;;;;;;15.62;100.00;101920.50;5088232;28;20492;-88
2022/07/22 02:20:24;;;;;;;5.38;1.38;;;;;;;15.41;100.00;101917.75;5076862;28;20470;-88
2022/07/22 02:22:51;;;;;;;6.18;1.35;;;;;;;15.28;100.00;101903.31;5066214;28;20048;-87
2022/07/22 02:25:18;;;;;;;6.30;1.52;;;;;;;15.46;100.00;101921.09;5073220;28;20118;-87
2022/07/22 02:27:45;;;;;;;5.38;1.55;;;;;;;15.61;100.00;101927.53;5064210;28;20135;-88
2022/07/22 02:30:12;;;;;;;4.32;1.38;;;;;;;15.79;100.00;101906.63;5060388;28;20056;-88
2022/07/22 02:32:39;;;;;;;5.05;1.40;;;;;;;15.63;100.00;101917.75;5055597;28;20541;-88
2022/07/22 02:35:06;;;;;;;6.47;1.52;;;;;;;15.70;100.00;101913.94;5075337;28;20054;-88
2022/07/22 02:37:33;;;;;;;3.67;1.00;;;;;;;15.89;100.00;101921.16;5074826;28;20040;-88
2022/07/22 02:40:00;;;;;;;5.35;1.20;;;;;;;15.77;100.00;101904.03;5075237;28;20054;-88
2022/07/22 02:42:27;;;;;;;2.88;1.10;;;;;;;16.02;100.00;101909.16;5074946;28;20050;-87
2022/07/22 02:44:54;;;;;;;3.55;1.20;;;;;;;15.84;100.00;101909.94;5055249;28;20135;-88
2022/07/22 02:47:21;;;;;;;4.65;1.25;;;;;;;15.59;100.00;101921.44;5070460;28;20139;-87
2022/07/22 02:49:48;;;;;;;6.63;1.70;;;;;;;15.48;100.00;101907.81;5074910;28;20504;-87
2022/07/22 02:52:14;;;;;;;6.15;1.30;;;;;;;15.47;100.00;101908.72;5062454;28;20048;-87
2022/07/22 02:54:41;;;;;;;6.88;1.40;;;;;;;15.57;100.00;101918.00;5066726;28;20401;-87
2022/07/22 02:57:08;;;;;;;5.72;1.42;;;;;;;15.27;100.00;101897.19;5054768;28;20071;-87
2022/07/22 02:59:35;;;;;;;4.97;1.23;;;;;;;15.43;100.00;101894.81;5073068;28;20055;-87
2022/07/22 03:02:02;;;;;;;4.18;1.33;;;;;;;15.11;100.00;101902.19;5071477;28;20599;-88
2022/07/22 03:04:28;;;;;;;4.07;1.20;;;;;;;15.26;100.00;101902.50;5057798;28;20048;-88
2022/07/22 03:06:55;;;;;;;7.28;1.65;;;;;;;15.08;100.00;101906.72;5065547;28;20087;-88
2022/07/22 03:09:22;;;;;;;4.13;1.30;;;;;;;15.56;100.00;101898.69;5055727;28;20099;-88
2022/07/22 03:11:49;;;;;;;4.25;1.20;;;;;;;15.49;100.00;101906.88;5092370;28;20130;-88
2022/07/22 03:14:18;;;;;;;3.53;1.45;;;;;;;15.47;100.00;101906.94;5063087;28;20049;-87
2022/07/22 03:16:45;;;;;;;2.22;1.02;;;;;;;15.46;100.00;101909.69;5054448;28;20057;-87
2022/07/22 03:19:12;;;;;;;4.15;1.30;;;;;;;15.36;100.00;101901.25;5053332;28;20045;-88
2022/07/22 03:21:39;;;;;;;3.60;1.17;;;;;;;15.77;100.00;101896.13;5082451;28;20051;-87
2022/07/22 03:24:06;;;;;;;3.15;1.20;;;;;;;15.92;100.00;101892.00;5060727;28;20055;-87
2022/07/22 03:26:33;;;;;;;5.47;1.30;;;;;;;16.08;100.00;101901.00;5053908;28;20056;-87
2022/07/22 03:29:00;;;;;;;2.03;0.90;;;;;;;15.83;100.00;101890.59;5091002;28;20042;-88
2022/07/22 03:31:27;;;;;;;3.53;1.15;;;;;;;15.92;100.00;101899.91;5084114;28;20053;-87
2022/07/22 03:33:53;;;;;;;4.70;1.10;;;;;;;15.91;100.00;101893.75;5074262;28;20048;-88
2022/07/22 03:36:21;;;;;;;3.10;1.00;;;;;;;15.88;100.00;101885.09;5057972;28;20440;-88
2022/07/22 03:38:47;;;;;;;4.22;1.20;;;;;;;16.05;100.00;101890.53;5059216;28;20406;-88
2022/07/22 03:41:14;;;;;;;3.58;1.17;;;;;;;15.84;100.00;101886.16;5070037;28;20052;-88
2022/07/22 03:43:41;;;;;;;4.82;1.15;;;;;;;16.09;100.00;101886.00;5056241;28;20060;-87
2022/07/22 03:46:07;;;;;;;3.97;1.17;;;;;;;15.96;100.00;101875.09;5078072;28;20046;-88
2022/07/22 03:48:34;;;;;;;6.68;1.30;;;;;;;15.97;100.00;101892.66;5078059;28;20119;-88
2022/07/22 03:51:01;;;;;;;4.93;1.30;;;;;;;15.94;100.00;101895.44;5066388;28;20070;-88
2022/07/22 03:53:28;;;;;;;5.53;1.25;;;;;;;15.79;100.00;101885.50;5073078;28;20051;-88
2022/07/22 03:55:54;;;;;;;4.00;1.23;;;;;;;15.85;100.00;101891.38;5078543;28;20131;-88
2022/07/22 03:58:21;;;;;;;2.40;1.08;;;;;;;15.78;100.00;101908.41;5077900;28;20055;-88
2022/07/22 04:00:48;;;;;;;5.72;1.10;;;;;;;15.99;100.00;101890.81;5077659;28;20052;-88
2022/07/22 04:03:15;;;;;;;3.65;1.20;;;;;;;15.94;100.00;101891.00;5070283;28;20493;-88
2022/07/22 04:05:42;;;;;;;6.15;1.45;;;;;;;15.95;100.00;101886.56;5075682;28;20051;-88
2022/07/22 04:08:09;;;;;;;3.17;1.23;;;;;;;16.07;100.00;101896.63;5063094;28;20048;-88
2022/07/22 04:10:35;;;;;;;4.00;1.20;;;;;;;16.05;100.00;101876.50;5067074;28;20057;-88
2022/07/22 04:13:02;;;;;;;4.15;1.20;;;;;;;15.90;100.00;101881.50;5056855;28;20055;-88
2022/07/22 04:15:30;;;;;;;3.05;1.20;;;;;;;16.01;100.00;101891.59;5100732;28;20055;-88
2022/07/22 04:17:57;;;;;;;2.92;1.20;;;;;;;15.79;100.00;101878.41;5078286;28;20478;-88
2022/07/22 04:20:23;;;;;;;2.45;1.10;;;;;;;15.65;100.00;101870.19;5078178;28;20127;-88
2022/07/22 04:22:50;;;;;;;12.88;1.70;;;;;;;15.42;100.00;101874.59;5075803;28;20052;-88
2022/07/22 04:25:17;;;;;;;5.93;1.33;;;;;;;15.47;100.00;101869.16;5073017;28;20055;-88
2022/07/22 04:27:44;;;;;;;4.50;1.80;;;;;;;15.65;100.00;101883.38;5068872;28;20048;-88
2022/07/22 04:30:11;;;;;;;7.03;1.73;;;;;;;15.33;100.00;101873.22;5072506;28;20048;-88
2022/07/22 04:32:38;;;;;;;5.28;1.35;;;;;;;15.52;100.00;101877.75;5093870;28;20044;-88
2022/07/22 04:35:05;;;;;;;8.25;2.08;;;;;;;15.28;100.00;101883.09;5077408;28;20413;-88
2022/07/22 04:37:32;;;;;;;6.93;1.67;;;;;;;15.15;100.00;101866.84;5077487;28;20401;-88
2022/07/22 04:39:59;;;;;;;4.15;1.23;;;;;;;15.44;100.00;101870.16;5087850;28;20055;-88
2022/07/22 04:42:26;;;;;;;4.72;1.65;;;;;;;15.55;100.00;101869.72;5074600;28;20052;-87
2022/07/22 04:44:53;;;;;;;6.63;1.50;;;;;;;15.35;100.00;101886.31;5084356;28;20462;-88
2022/07/22 04:47:20;;;;;;;9.15;1.50;;;;;;;15.44;100.00;101872.78;5071557;28;20055;-87
2022/07/22 04:49:47;;;;;;;4.93;1.33;;;;;;;15.50;100.00;101867.25;5065521;28;20044;-88
2022/07/22 04:52:13;;;;;;;4.28;1.20;;;;;;;15.79;100.00;101874.94;5075230;28;20409;-88
2022/07/22 04:54:41;;;;;;;4.18;1.20;;;;;;;15.88;100.00;101871.91;5068111;28;20055;-88
2022/07/22 04:57:08;;;;;;;4.70;1.17;;;;;;;15.82;100.00;101859.81;5069322;28;20139;-88
2022/07/22 04:59:34;;;;;;;3.22;1.15;;;;;;;15.98;100.00;101859.19;5076724;28;20040;-88
2022/07/22 05:02:02;;;;;;;3.67;1.20;;;;;;;15.86;100.00;101861.41;5075958;28;20067;-88
2022/07/22 05:04:30;;;;;;;3.58;1.13;;;;;;;15.66;100.00;101862.19;5074446;28;20048;-88
2022/07/22 05:06:57;;;;;;;3.13;1.13;;;;;;;15.73;100.00;101857.53;5093977;28;20086;-88
2022/07/22 05:09:23;;;;;;;5.47;1.45;;;;;;;15.47;100.00;101871.78;5074754;28;20043;-88
2022/07/22 05:11:50;;;;;;;5.32;1.35;;;;;;;15.19;100.00;101864.94;5056695;28;20048;-88
2022/07/22 05:14:17;;;;;;;6.05;1.63;;;;;;;15.47;100.00;101853.31;5070278;28;20052;-88
2022/07/22 05:16:44;;;;;;;3.42;1.20;;;;;;;15.59;100.00;101847.53;5066223;28;20126;-87
2022/07/22 05:19:11;;;;;;;5.03;1.20;;;;;;;15.42;100.00;101855.28;5055640;28;20051;-87
2022/07/22 05:21:37;;;;;;;4.63;1.50;;;;;;;15.14;100.00;101861.66;5088718;28;20071;-87
2022/07/22 05:24:05;;;;;;;4.72;1.33;;;;;;;15.33;100.00;101840.66;5074808;28;20058;-87
2022/07/22 05:26:33;;;;;;;6.38;1.45;;;;;;;15.35;100.00;101847.63;5063740;28;20052;-87
2022/07/22 05:28:59;;;;;;;5.47;1.55;;;;;;;15.30;100.00;101848.72;5060711;28;20044;-87
2022/07/22 05:31:27;;;;;;;4.40;1.20;;;;;;;15.37;100.00;101850.19;5082767;28;20056;-87
2022/07/22 05:33:54;;;;;;;4.50;1.30;;;;;;;15.01;100.00;101832.25;5071243;28;20440;-87
2022/07/22 05:36:21;;;;;;;3.55;1.30;;;;;;;15.21;100.00;101844.66;5055865;28;20048;-88
2022/07/22 05:38:47;;;;;;;7.18;1.58;;;;;;;14.92;100.00;101851.91;5071474;28;20048;-88
2022/07/22 05:41:14;;;;;;;4.80;1.30;;;;;;;14.95;100.00;101858.88;5086119;28;20505;-87
2022/07/22 05:43:41;;;;;;;4.97;1.20;;;;;;;15.02;100.00;101849.78;5055320;28;20048;-87
2022/07/22 05:46:08;;;;;;;3.72;1.40;;;;;;;15.17;100.00;101859.75;5055692;28;20055;-87
2022/07/22 05:48:35;;;;;;;3.03;1.10;;;;;;;15.17;100.00;101821.94;5068190;28;20493;-88
2022/07/22 05:51:02;;;;;;;5.07;1.38;;;;;;;15.33;100.00;101844.19;5061512;28;20123;-87
2022/07/22 05:53:29;;;;;;;6.20;1.67;;;;;;;15.19;100.00;101859.66;5086874;28;20121;-87
2022/07/22 05:55:55;;;;;;;5.78;1.30;;;;;;;15.17;100.00;101857.13;5060659;28;20058;-87
2022/07/22 05:58:27;;;;;;;3.00;1.10;;;;;;;14.86;100.00;101807.34;5089305;28;20055;-87
2022/07/22 06:00:55;;;;;;;7.00;1.55;;;;;;;14.97;100.00;101838.56;5082742;28;20063;-87
2022/07/22 06:03:22;;;;;;;3.38;1.20;;;;;;;14.90;100.00;101808.06;5076115;28;20506;-87
2022/07/22 06:05:49;;;;;;;3.53;1.17;;;;;;;15.01;100.00;101811.13;5064078;28;20055;-87
2022/07/22 06:08:16;;;;;;;5.50;1.65;;;;;;;14.93;100.00;101829.06;5072669;28;20106;-87
2022/07/22 06:10:43;;;;;;;6.13;1.30;;;;;;;15.03;100.00;101814.56;5089000;28;20156;-87
2022/07/22 06:13:09;;;;;;;7.25;1.55;;;;;;;14.94;100.00;101783.28;5077475;28;20040;-87
2022/07/22 06:15:36;;;;;;;6.00;1.45;;;;;;;15.41;100.00;101835.09;5077257;28;20127;-87
2022/07/22 06:18:04;;;;;;;3.55;1.10;;;;;;;15.41;100.00;101835.94;5098373;28;20047;-86
2022/07/22 06:20:31;;;;;;;4.05;1.20;;;;;;;15.28;100.00;101782.81;5069269;28;20040;-86
2022/07/22 06:22:57;;;;;;;4.88;1.20;;;;;;;15.53;100.00;101840.72;5062519;28;20036;-89
2022/07/22 06:25:24;;;;;;;6.20;1.20;;;;;;;15.41;100.00;101758.56;5066468;28;20047;-87
2022/07/22 06:28:10;;;;;;;3.53;1.15;;;;;;;15.54;100.00;101772.97;5084027;28;20048;-87
2022/07/22 06:30:37;;;;;;;4.53;1.45;;;;;;;15.50;100.00;101822.38;5077983;28;20035;-88
2022/07/22 06:33:04;;;;;;;7.45;1.55;;;;;;;15.47;100.00;101792.59;5077847;28;20100;-87
2022/07/22 06:35:31;;;;;;;6.07;1.40;;;;;;;15.65;100.00;101844.66;5065866;28;20467;-88
2022/07/22 06:37:58;;;;;;;3.03;1.20;;;;;;;15.55;100.00;101795.81;5077208;28;20127;-88
2022/07/22 06:40:34;;;;;;;5.00;1.42;;;;;;;15.59;100.00;101793.88;5076057;28;20049;-88
2022/07/22 06:43:02;;;;;;;3.72;1.20;;;;;;;16.03;100.00;101828.16;5093692;28;20056;-87
2022/07/22 06:45:30;;;;;;;8.20;1.73;;;;;;;15.86;100.00;101786.59;5070066;28;20048;-86
2022/07/22 06:47:57;;;;;;;4.43;1.15;;;;;;;15.99;100.00;101819.50;5072149;28;20048;-86
2022/07/22 06:50:24;;;;;;;6.00;1.40;;;;;;;15.61;100.00;101782.34;5076315;28;20048;-86
2022/07/22 06:52:52;;;;;;;5.05;1.25;;;;;;;16.07;100.00;101838.50;5086039;28;20408;-86
2022/07/22 06:55:19;;;;;;;7.35;1.48;;;;;;;15.81;100.00;101784.19;5081283;28;20044;-86
2022/07/22 06:57:46;;;;;;;8.25;1.48;;;;;;;15.66;100.00;101806.75;5088041;28;20077;-87
2022/07/22 07:00:14;;;;;;;4.53;1.13;;;;;;;15.82;100.00;101780.59;5066603;28;20048;-85
2022/07/22 07:02:41;;;;;;;3.45;1.25;;;;;;;16.45;100.00;101840.38;5087164;28;20048;-84
2022/07/22 07:05:08;;;;;;;7.85;1.45;;;;;;;16.15;100.00;101817.06;5063887;28;20059;-86
2022/07/22 07:07:46;;;;;;;4.28;1.20;;;;;;;16.35;100.00;101847.03;5061906;28;20048;-84
2022/07/22 07:10:15;;;;;;;5.28;1.58;;;;;;;16.37;100.00;101829.31;5062663;28;20123;-85
2022/07/22 07:12:43;;;;;;;5.15;1.20;;;;;;;16.42;100.00;101854.59;5072969;28;20060;-84
2022/07/22 07:15:10;;;;;;;3.10;1.00;;;;;;;16.32;100.00;101827.75;5086210;28;20094;-85
2022/07/22 07:17:56;;;;;;;6.30;1.48;;;;;;;16.24;100.00;101800.78;5069958;28;20056;-85
2022/07/22 07:20:23;;;;;;;4.18;1.33;;;;;;;16.24;100.00;101799.94;5067670;28;20470;-85
2022/07/22 07:22:51;;;;;;;4.70;1.35;;;;;;;16.12;100.00;101827.75;5066350;28;20134;-85
2022/07/22 07:25:18;;;;;;;7.20;1.42;;;;;;;16.06;100.00;101830.63;5086299;28;20054;-84
2022/07/22 07:27:50;;;;;;;5.35;1.42;;;;;;;15.91;100.00;101811.03;5066421;28;20486;-85
2022/07/22 07:30:20;;;;;;;5.50;1.45;;;;;;;15.94;100.00;101816.19;5072016;28;20071;-84
2022/07/22 07:32:47;;;;;;;5.07;1.42;;;;;;;16.04;100.00;101817.53;5091834;28;20052;-84
2022/07/22 07:35:14;;;;;;;5.50;1.15;;;;;;;16.07;100.00;101841.13;5076270;28;20482;-84
2022/07/22 07:37:41;;;;;;;5.20;1.60;;;;;;;15.92;100.00;101805.69;5088515;28;20075;-84
2022/07/22 07:40:08;;;;;;;3.92;1.30;;;;;;;16.22;100.00;101836.09;5074235;28;20044;-84
2022/07/22 07:42:35;;;;;;;6.43;1.95;;;;;;;15.91;100.00;101788.13;5091644;28;20112;-84
2022/07/22 07:45:11;;;;;;;5.43;1.75;;;;;;;16.41;100.00;101844.09;5079238;28;20047;-85
2022/07/22 07:47:38;;;;;;;4.65;1.33;;;;;;;16.16;100.00;101784.41;5079419;28;20048;-84
2022/07/22 07:50:07;;;;;;;5.85;1.50;;;;;;;16.15;100.00;101840.81;5085918;28;20044;-84
2022/07/22 07:52:43;;;;;;;4.45;1.30;;;;;;;16.08;100.00;101805.03;5080037;28;20429;-84
2022/07/22 07:55:17;;;;;;;;;;;;;;;16.51;100.00;101838.31;5068139;28;20040;-83
2022/07/22 07:57:48;;;;;;;6.40;1.20;;;;;;;16.39;100.00;101835.38;5076730;28;20270;-84
2022/07/22 08:00:22;;;;;;;4.63;1.40;;;;;;;16.53;100.00;101835.63;5092253;28;20462;-84
2022/07/22 08:02:50;;;;;;;4.40;1.20;;;;;;;16.66;100.00;101804.19;5094835;28;20110;-84
2022/07/22 08:05:19;;;;;;;5.18;1.13;;;;;;;16.23;100.00;101800.84;5095235;28;20097;-85
2022/07/22 08:07:47;;;;;;;5.22;1.10;;;;;;;16.40;100.00;101834.47;5094944;28;20139;-85
2022/07/22 08:10:15;;;;;;;3.20;1.10;;;;;;;16.47;100.00;101769.81;5064770;28;20040;-84
2022/07/22 08:13:03;;;;;;;5.57;1.30;;;;;;;16.55;100.00;101780.03;5089155;28;20059;-84
2022/07/22 08:15:31;;;;;;;5.97;1.73;;;;;;;16.62;100.00;101805.25;5081870;28;20047;-84
2022/07/22 08:17:59;;;;;;;6.28;1.30;;;;;;;16.36;100.00;101794.09;5082044;28;20061;-84
2022/07/22 08:20:26;;;;;;;3.90;1.05;;;;;;;16.59;100.00;101781.59;5099170;28;20504;-83
2022/07/22 08:22:53;;;;;;;6.18;1.30;;;;;;;16.80;100.00;101798.25;5083571;28;20142;-84
2022/07/22 08:25:21;;;;;;;5.63;1.45;;;;;;;16.62;100.00;101794.69;5082188;28;20044;-84
2022/07/22 08:27:48;;;;;;;4.55;1.48;;;;;;;16.85;100.00;101822.72;5090533;28;20076;-84
2022/07/22 08:30:16;;;;;;;6.72;1.63;;;;;;;16.88;100.00;101810.22;5072493;28;20083;-84
2022/07/22 08:32:43;;;;;;;7.43;1.23;;;;;;;16.86;100.00;101822.66;5105887;28;20063;-84
2022/07/22 08:35:10;;;;;;;5.00;1.52;;;;;;;16.47;100.00;101802.38;5102351;28;20502;-84
2022/07/22 08:37:38;;;;;;;5.72;1.60;;;;;;;16.75;100.00;101832.88;5101339;28;20039;-84
2022/07/22 08:40:07;;;;;;;3.38;1.15;;;;;;;16.79;100.00;101820.34;5084378;28;20083;-84
2022/07/22 08:42:39;;;;;;;7.03;1.60;;;;;;;17.04;100.00;101825.38;5083498;28;20405;-84
2022/07/22 08:45:08;;;;;;;5.15;1.50;;;;;;;16.86;100.00;101795.38;5076030;28;20052;-85
2022/07/22 08:47:48;;;;;;;2.67;0.88;;;;;;;17.36;100.00;101821.16;5089060;28;20659;-84
2022/07/22 08:50:16;;;;;;;2.67;0.80;;;;;;;17.51;100.00;101813.41;5087844;28;20051;-84
2022/07/22 08:52:43;;;;;;;3.85;1.27;;;;;;;16.99;100.00;101812.34;5095481;28;20048;-85
2022/07/22 08:55:10;;;;;;;3.20;1.00;;;;;;;17.33;100.00;101796.66;5071921;28;20102;-84
2022/07/22 08:57:37;;;;;;;8.18;1.85;;;;;;;17.45;100.00;101798.69;5078045;28;20044;-86
2022/07/22 09:00:14;;;;;;;7.28;1.50;;;;;;;17.56;100.00;101814.03;5079189;28;20040;-85
2022/07/22 09:02:42;;;;;;;4.60;1.02;;;;;;;17.69;100.00;101812.50;5076474;28;20071;-85
2022/07/22 09:05:13;;;;;;;4.57;1.13;;;;;;;17.58;100.00;101781.25;5066701;28;20079;-85
2022/07/22 09:08:00;;;;;;;5.57;1.23;;;;;;;18.02;100.00;101790.53;5095754;28;20486;-85
2022/07/22 09:10:33;;;;;;;3.85;1.08;;;;;;;18.57;100.00;101800.84;5105655;28;20048;-84
2022/07/22 09:13:02;;;;;;;4.72;1.20;;;;;;;18.81;100.00;101804.91;5108367;28;20045;-85
2022/07/22 09:15:33;;;;;;;4.28;1.13;;;;;;;18.70;100.00;101766.56;5075619;28;20460;-85
2022/07/22 09:18:00;;;;;;;2.65;1.10;;;;;;;18.91;100.00;101777.78;5097885;28;20487;-84
2022/07/22 09:20:33;;;;;;;7.20;1.38;;;;;;;18.51;100.00;101732.22;5093142;28;20102;-85
2022/07/22 09:23:00;;;;;;;3.65;1.10;;;;;;;18.81;100.00;101779.22;5078277;28;20062;-85
2022/07/22 09:25:35;;;;;;;6.05;1.15;;;;;;;19.03;100.00;101796.63;5090038;28;20047;-85
2022/07/22 09:28:07;;;;;;;3.92;1.20;;;;;;;19.32;100.00;101787.00;5091477;28;20143;-86
2022/07/22 09:30:54;;;;;;;7.65;1.13;;;;;;;18.94;100.00;101745.75;5086494;28;20718;-85
2022/07/22 09:33:24;;;;;;;6.30;1.30;;;;;;;19.28;100.00;101719.94;5082935;28;20396;-85
2022/07/22 09:35:50;;;;;;;3.33;1.15;;;;;;;19.99;97.91;101779.50;5076779;28;20397;-84
2022/07/22 09:38:27;;;;;;;4.13;1.05;;;;;;;19.42;93.22;101750.97;5089083;28;20048;-85
2022/07/22 09:40:54;;;;;;;7.13;1.58;;;;;;;18.77;96.10;101730.78;5080167;28;20216;-85
2022/07/22 09:43:21;;;;;;;4.85;1.30;;;;;;;18.81;95.87;101742.06;5076763;28;20492;-85
2022/07/22 09:46:00;;;;;;;3.08;1.25;;;;;;;19.02;94.74;101745.34;5110174;28;20138;-86
2022/07/22 09:48:30;;;;;;;5.90;1.38;;;;;;;18.87;94.96;101698.44;5069448;28;20402;-85
2022/07/22 09:50:58;;;;;;;6.57;1.30;;;;;;;18.78;92.09;101707.75;5069067;28;20048;-84
2022/07/22 09:53:27;;;;;;;4.38;1.02;;;;;;;18.71;91.45;101770.91;5092157;28;20047;-84
2022/07/22 09:55:56;;;;;;;4.72;1.25;;;;;;;18.48;96.80;101715.63;5073432;28;20102;-85
2022/07/22 09:58:24;;;;;;;3.22;1.02;;;;;;;18.60;95.97;101744.13;5071639;28;20580;-84
2022/07/22 10:00:52;;;;;;;5.38;1.50;;;;;;;18.79;88.26;101759.88;5093414;28;20055;-84
2022/07/22 10:03:40;;;;;;;5.18;1.25;;;;;;;18.27;96.00;101779.47;5085015;28;20071;-84
2022/07/22 10:06:07;;;;;;;6.78;1.50;;;;;;;17.53;100.00;101717.09;5072036;28;20056;-84
2022/07/22 10:08:34;;;;;;;2.35;0.95;;;;;;;17.71;100.00;101738.28;5107484;28;20484;-84
2022/07/22 10:11:04;;;;;;;4.85;1.20;;;;;;;17.80;100.00;101721.88;5069665;28;20403;-84
2022/07/22 10:13:34;;;;;;;4.05;0.90;;;;;;;18.14;98.26;101699.78;5072973;28;20704;-85
2022/07/22 10:16:01;;;;;;;4.63;1.25;;;;;;;18.29;95.89;101736.97;5056268;28;20058;-85
2022/07/22 10:18:30;;;;;;;4.53;1.35;;;;;;;17.99;98.28;101711.22;5088037;28;20397;-87
2022/07/22 10:21:04;;;;;;;4.85;1.15;;;;;;;18.20;98.48;101748.94;5093315;28;20574;-85
2022/07/22 10:23:32;;;;;;;4.50;1.10;;;;;;;18.11;96.18;101715.81;5085518;28;20052;-85
2022/07/22 10:26:01;;;;;;;4.95;1.35;;;;;;;18.35;97.37;101752.56;5102681;28;20134;-85
2022/07/22 10:28:35;;;;;;;5.97;1.38;;;;;;;18.65;96.74;101759.78;5092796;28;20048;-84
2022/07/22 10:31:13;;;;;;;6.10;1.60;;;;;;;18.24;100.00;101755.81;5084954;28;20043;-84
2022/07/22 10:33:40;;;;;;;5.53;1.38;;;;;;;18.14;100.00;101715.66;5088452;28;20048;-84
2022/07/22 10:36:09;;;;;;;7.45;1.60;;;;;;;17.53;100.00;101724.16;5066026;28;20048;-84
2022/07/22 10:38:36;;;;;;;7.43;1.33;;;;;;;17.22;100.00;101699.25;5083018;28;20066;-86
2022/07/22 10:41:07;;;;;;;2.05;0.90;;;;;;;17.24;100.00;101724.69;5089970;28;20044;-86
2022/07/22 10:43:43;;;;;;;3.67;1.20;;;;;;;17.52;100.00;101765.66;5095449;28;20058;-84
2022/07/22 10:46:10;;;;;;;5.55;1.42;;;;;;;16.87;100.00;101691.25;5088400;28;20127;-86
2022/07/22 10:48:37;;;;;;;6.40;1.20;;;;;;;17.50;100.00;101759.59;5069550;28;20055;-88
2022/07/22 10:51:20;;;;;;;4.95;1.50;;;;;;;17.49;100.00;101725.25;5075508;28;20054;-89
2022/07/22 10:53:53;;;;;;;7.00;1.70;;;;;;;17.30;100.00;101757.97;5058948;28;20048;-87
2022/07/22 10:56:31;;;;;;;4.38;1.20;;;;;;;17.08;100.00;101750.22;5074212;28;20091;-87
2022/07/22 10:59:16;;;;;;;10.40;1.83;;;;;;;16.51;100.00;101729.09;5063960;28;20066;-85
2022/07/22 11:01:46;;;;;;;5.18;1.15;;;;;;;16.73;100.00;101707.75;5073583;28;20040;-85
2022/07/22 11:04:17;;;;;;;5.93;1.50;;;;;;;17.05;100.00;101740.66;5070235;28;20083;-86
2022/07/22 11:06:47;;;;;;;4.60;1.20;;;;;;;17.09;100.00;101706.94;5066975;28;20101;-85
2022/07/22 11:09:15;;;;;;;5.25;1.30;;;;;;;16.81;100.00;101708.25;5082119;28;20257;-86
2022/07/22 11:11:49;;;;;;;3.97;1.10;;;;;;;17.00;100.00;101740.00;5100661;28;20540;-85
2022/07/22 11:14:33;;;;;;;5.10;0.98;;;;;;;16.43;100.00;101702.16;5064094;28;20125;-86
2022/07/22 11:17:08;;;;;;;5.97;1.35;;;;;;;16.42;100.00;101742.75;5067685;28;20051;-85
2022/07/22 11:19:39;;;;;;;3.15;1.00;;;;;;;16.74;100.00;101733.28;5075536;28;20075;-86
2022/07/22 11:22:07;;;;;;;7.57;1.45;;;;;;;16.95;100.00;101728.78;5080087;28;20095;-86